LRBC/BCM METAR and TAF weather

Enter ICAO airport designator
Station Type Date Time Source
LRBC METAR 2021/02/27 03:30 UTC NOAA

LRBC 270330Z 33005KT CAVOK 01/00 Q1019


Station Type Date Time Source
LRBC Decoded METAR 2021/02/27 03:30 UTC NOAA

Bacau, Romania (LRBC) 46-35N 026-58E 190M
Feb 26, 2021 - 10:30 PM EST / 2021.02.27 0330 UTC
Wind: from the NNW (330 degrees) at 6 MPH (5 KT):0
Visibility: greater than 7 mile(s):0
Temperature: 33 F (1 C)
Windchill: 26 F (-3 C):1
Dew Point: 32 F (0 C)
Relative Humidity: 93%
Pressure (altimeter): 30.09 in. Hg (1019 hPa)
ob: LRBC 270330Z 33005KT CAVOK 01/00 Q1019
cycle: 3

Station Type Date Time Source
LRBC TAF 2010/08/31 20:30 UTC NOAA

TAF LRBC 312030Z 3121/0203 CNL

Example: see airport list